Time;durP1;ratioP1;P1;durP2;ratioP2;P2;SDS_P1;SDS_P2;PMS_P1;PMS_P2;Temp;Humidity;BMP_temperature;BMP_pressure;BME280_temperature;BME280_humidity;BME280_pressure;Samples;Min_cycle;Max_cycle;Signal;HPM_P1;HPM_P2
2023/04/26 00:02:18;;;;;;;17.47;9.77;;;2.50;99.90;;;;;;5076212;28;20242;-73
2023/04/26 00:04:46;;;;;;;12.13;8.63;;;2.40;99.90;;;;;;5076101;28;20202;-73
2023/04/26 00:07:14;;;;;;;14.77;9.33;;;2.40;99.90;;;;;;5075933;28;20668;-73
2023/04/26 00:09:43;;;;;;;14.50;8.67;;;2.50;99.90;;;;;;5075822;28;20197;-74
2023/04/26 00:12:10;;;;;;;11.57;7.50;;;2.50;99.90;;;;;;5076090;28;20201;-74
2023/04/26 00:14:37;;;;;;;11.93;8.53;;;2.40;99.90;;;;;;5076018;28;20193;-74
2023/04/26 00:17:04;;;;;;;14.43;8.73;;;2.40;99.90;;;;;;5075690;28;20766;-74
2023/04/26 00:19:31;;;;;;;13.63;8.30;;;2.30;99.90;;;;;;5075856;28;20246;-73
2023/04/26 00:21:57;;;;;;;12.60;8.53;;;2.20;99.90;;;;;;5075707;28;20201;-74
2023/04/26 00:24:24;;;;;;;13.10;8.63;;;2.00;99.90;;;;;;5075722;28;20263;-74
2023/04/26 00:26:54;;;;;;;15.47;9.03;;;2.10;99.90;;;;;;5075818;28;20248;-74
2023/04/26 00:29:21;;;;;;;17.47;8.93;;;2.00;99.90;;;;;;5075570;28;20676;-74
2023/04/26 00:31:48;;;;;;;12.60;8.60;;;1.90;99.90;;;;;;5075658;28;20193;-74
2023/04/26 00:34:15;;;;;;;14.60;8.77;;;1.90;99.90;;;;;;5075331;28;20243;-74
2023/04/26 00:36:41;;;;;;;13.87;9.60;;;1.90;99.90;;;;;;5075324;28;20221;-73
2023/04/26 00:39:09;;;;;;;11.37;7.90;;;1.80;99.90;;;;;;5075648;28;20213;-74
2023/04/26 00:41:35;;;;;;;13.13;8.70;;;1.70;99.90;;;;;;5075466;28;20228;-74
2023/04/26 00:44:04;;;;;;;12.77;8.83;;;1.60;99.90;;;;;;5075487;28;20201;-75
2023/04/26 00:46:31;;;;;;;12.37;9.30;;;1.50;99.90;;;;;;5075360;28;20267;-73
2023/04/26 00:48:58;;;;;;;14.73;9.07;;;1.50;99.90;;;;;;5075225;28;20258;-74
2023/04/26 00:51:26;;;;;;;16.57;9.10;;;1.40;99.90;;;;;;5075095;28;20242;-74
2023/04/26 00:53:52;;;;;;;15.07;9.67;;;1.40;99.90;;;;;;5075303;28;20197;-73
2023/04/26 00:56:20;;;;;;;18.57;9.93;;;1.40;99.90;;;;;;5073793;28;20704;-73
2023/04/26 00:58:47;;;;;;;16.50;10.37;;;1.30;99.90;;;;;;5075171;28;20201;-73
2023/04/26 01:01:15;;;;;;;13.43;9.60;;;1.20;99.90;;;;;;5074914;28;20652;-74
2023/04/26 01:03:43;;;;;;;14.37;9.43;;;1.20;99.90;;;;;;5074904;28;20196;-73
2023/04/26 01:06:09;;;;;;;19.53;10.17;;;1.10;99.90;;;;;;5074818;28;20201;-73
2023/04/26 01:08:36;;;;;;;15.80;9.83;;;1.10;99.90;;;;;;5075043;28;20209;-73
2023/04/26 01:11:04;;;;;;;19.63;11.10;;;1.10;99.90;;;;;;5074869;28;20246;-71
2023/04/26 01:13:32;;;;;;;18.60;11.10;;;1.20;99.90;;;;;;5074852;28;20212;-74
2023/04/26 01:15:59;;;;;;;17.87;10.87;;;1.10;99.90;;;;;;5074599;28;20341;-73
2023/04/26 01:18:27;;;;;;;14.70;10.17;;;1.30;99.90;;;;;;5074617;28;20322;-72
2023/04/26 01:20:55;;;;;;;14.13;9.57;;;1.30;99.90;;;;;;5074537;28;20479;-73
2023/04/26 01:23:23;;;;;;;14.43;9.87;;;1.10;99.90;;;;;;5074677;28;20212;-73
2023/04/26 01:25:50;;;;;;;15.33;10.17;;;1.20;99.90;;;;;;5074610;28;20231;-73
2023/04/26 01:28:17;;;;;;;15.97;9.33;;;1.30;99.90;;;;;;5074518;28;20205;-72
2023/04/26 01:30:43;;;;;;;17.07;10.47;;;1.30;99.90;;;;;;5074393;28;20197;-74
2023/04/26 01:33:10;;;;;;;17.90;10.43;;;1.30;99.90;;;;;;5074219;28;20213;-74
2023/04/26 01:35:36;;;;;;;18.70;10.67;;;1.20;99.90;;;;;;5074129;28;20236;-74
2023/04/26 01:38:03;;;;;;;16.40;10.37;;;1.10;99.90;;;;;;5074407;28;20193;-74
2023/04/26 01:40:31;;;;;;;15.23;9.63;;;1.10;99.90;;;;;;5074294;28;20283;-74
2023/04/26 01:42:58;;;;;;;18.10;10.23;;;1.00;99.90;;;;;;5074233;28;20201;-74
2023/04/26 01:45:25;;;;;;;17.33;10.20;;;1.00;99.90;;;;;;5074109;28;20661;-74
2023/04/26 01:47:51;;;;;;;19.30;11.03;;;1.10;99.90;;;;;;5074005;28;20193;-74
2023/04/26 01:50:18;;;;;;;17.13;9.97;;;1.00;99.90;;;;;;5074128;28;20200;-74
2023/04/26 01:52:45;;;;;;;16.70;10.10;;;0.90;99.90;;;;;;5074081;28;20201;-74
2023/04/26 01:55:11;;;;;;;21.33;11.30;;;0.80;99.90;;;;;;5074064;28;20255;-74
2023/04/26 01:57:39;;;;;;;16.33;10.20;;;0.80;99.90;;;;;;5073862;28;20255;-74
2023/04/26 02:00:08;;;;;;;18.23;11.17;;;0.70;99.90;;;;;;5073776;28;20286;-75
2023/04/26 02:02:34;;;;;;;19.27;11.03;;;0.90;99.90;;;;;;5073903;28;20205;-74
2023/04/26 02:05:01;;;;;;;15.93;10.00;;;0.90;99.90;;;;;;5073895;28;20193;-72
2023/04/26 02:07:27;;;;;;;16.53;11.00;;;0.90;99.90;;;;;;5073493;28;20251;-72
2023/04/26 02:09:54;;;;;;;15.57;10.37;;;1.00;99.90;;;;;;5073650;28;20193;-72
2023/04/26 02:12:21;;;;;;;20.27;11.60;;;1.20;99.90;;;;;;5073676;28;20208;-72
2023/04/26 02:14:49;;;;;;;20.93;10.53;;;1.30;99.90;;;;;;5073707;28;20197;-74
2023/04/26 02:17:16;;;;;;;17.07;11.77;;;1.30;99.90;;;;;;5073587;28;20225;-72
2023/04/26 02:19:42;;;;;;;17.33;9.80;;;1.10;99.90;;;;;;5073730;28;20246;-72
2023/04/26 02:22:09;;;;;;;18.70;10.27;;;1.10;99.90;;;;;;5073396;28;20668;-73
2023/04/26 02:24:35;;;;;;;16.20;10.20;;;0.90;99.90;;;;;;5073495;28;20248;-73
2023/04/26 02:27:03;;;;;;;13.00;9.33;;;0.90;99.90;;;;;;5073181;28;20201;-73
2023/04/26 02:29:30;;;;;;;19.57;10.47;;;0.70;99.90;;;;;;5073285;28;20206;-73
2023/04/26 02:31:59;;;;;;;15.37;9.60;;;0.90;99.90;;;;;;5073332;28;20672;-73
2023/04/26 02:34:25;;;;;;;12.53;8.80;;;1.00;99.90;;;;;;5073320;28;20202;-73
2023/04/26 02:36:52;;;;;;;15.50;9.57;;;0.90;99.90;;;;;;5073292;28;20221;-74
2023/04/26 02:39:19;;;;;;;17.80;9.87;;;0.80;99.90;;;;;;5073247;28;20197;-72
2023/04/26 02:41:46;;;;;;;14.70;10.33;;;0.70;99.90;;;;;;5073651;28;20200;-72
2023/04/26 02:44:13;;;;;;;18.87;10.00;;;0.60;99.90;;;;;;5073304;28;20196;-73
2023/04/26 02:46:39;;;;;;;16.30;10.00;;;0.50;99.90;;;;;;5073352;28;20204;-73
2023/04/26 02:49:07;;;;;;;19.77;10.57;;;0.60;99.90;;;;;;5073257;28;20197;-73
2023/04/26 02:51:34;;;;;;;20.37;9.63;;;0.50;99.90;;;;;;5073211;28;20196;-73
2023/04/26 02:54:01;;;;;;;17.67;11.10;;;0.60;99.90;;;;;;5073107;28;20254;-73
2023/04/26 02:56:28;;;;;;;19.47;10.87;;;0.70;99.90;;;;;;5072805;28;20231;-73
2023/04/26 02:58:55;;;;;;;13.63;10.33;;;0.80;99.90;;;;;;5073190;28;20251;-73
2023/04/26 03:01:21;;;;;;;17.23;10.53;;;0.60;99.90;;;;;;5073017;28;20242;-74
2023/04/26 03:03:48;;;;;;;18.30;11.10;;;0.50;99.90;;;;;;5072991;28;20255;-73
2023/04/26 03:06:16;;;;;;;17.90;10.10;;;0.40;99.90;;;;;;5072978;28;20197;-73
2023/04/26 03:08:42;;;;;;;19.27;10.40;;;0.40;99.90;;;;;;5072859;28;20603;-73
2023/04/26 03:11:09;;;;;;;18.37;11.17;;;0.40;99.90;;;;;;5072748;28;20197;-73
2023/04/26 03:13:36;;;;;;;16.97;9.97;;;0.30;99.90;;;;;;5072985;28;20203;-73
2023/04/26 03:16:02;;;;;;;15.27;10.73;;;0.40;99.90;;;;;;5072813;28;20251;-73
2023/04/26 03:18:29;;;;;;;17.80;10.57;;;0.40;99.90;;;;;;5072799;28;20196;-73
2023/04/26 03:20:56;;;;;;;14.73;9.63;;;0.30;99.90;;;;;;5075676;28;20185;-73
2023/04/26 03:23:24;;;;;;;19.27;10.27;;;0.20;99.90;;;;;;5076802;28;20208;-73
2023/04/26 03:25:51;;;;;;;22.90;11.70;;;0.20;99.90;;;;;;5077068;28;20196;-73
2023/04/26 03:28:17;;;;;;;19.57;11.33;;;0.20;99.90;;;;;;5076908;28;20623;-74
2023/04/26 03:30:44;;;;;;;20.37;10.80;;;0.30;99.90;;;;;;5076879;28;20682;-74
2023/04/26 03:33:12;;;;;;;19.33;10.73;;;0.30;99.90;;;;;;5076733;28;20279;-73
2023/04/26 03:35:38;;;;;;;16.43;10.43;;;0.30;99.90;;;;;;5076413;28;20332;-73
2023/04/26 03:38:05;;;;;;;18.70;10.43;;;0.30;99.90;;;;;;5076430;28;20282;-73
2023/04/26 03:40:33;;;;;;;17.67;11.13;;;0.30;99.90;;;;;;5076634;28;20279;-73
2023/04/26 03:43:00;;;;;;;18.47;10.40;;;0.30;99.90;;;;;;5076542;28;20255;-74
2023/04/26 03:45:27;;;;;;;14.73;10.20;;;0.20;99.90;;;;;;5076484;28;20205;-73
2023/04/26 03:47:53;;;;;;;19.10;11.03;;;0.20;99.90;;;;;;5076294;28;20205;-74
2023/04/26 03:50:20;;;;;;;20.27;10.70;;;0.20;99.90;;;;;;5076257;28;20197;-73
2023/04/26 03:52:47;;;;;;;19.17;11.77;;;0.10;99.90;;;;;;5076201;28;20197;-73
2023/04/26 03:55:13;;;;;;;17.83;10.13;;;0.00;99.90;;;;;;5076190;28;20660;-73
2023/04/26 03:57:41;;;;;;;18.47;11.30;;;0.00;99.90;;;;;;5076133;28;20228;-73
2023/04/26 04:00:10;;;;;;;16.67;11.00;;;-0.10;99.90;;;;;;5076098;28;20607;-74
2023/04/26 04:02:37;;;;;;;15.83;9.87;;;0.00;99.90;;;;;;5076004;28;20583;-73
2023/04/26 04:05:04;;;;;;;14.33;10.90;;;0.00;99.90;;;;;;5075906;28;20219;-73
2023/04/26 04:07:31;;;;;;;20.67;10.27;;;0.00;99.90;;;;;;5076052;28;20201;-73
2023/04/26 04:09:58;;;;;;;14.13;10.27;;;0.10;99.90;;;;;;5076055;28;20248;-73
2023/04/26 04:12:25;;;;;;;16.27;10.47;;;0.10;99.90;;;;;;5075951;28;20250;-74
2023/04/26 04:14:53;;;;;;;15.33;10.10;;;0.10;99.90;;;;;;5075763;28;20201;-73
2023/04/26 04:17:20;;;;;;;15.53;10.33;;;0.10;99.90;;;;;;5075599;28;20274;-73
2023/04/26 04:19:46;;;;;;;19.80;10.60;;;0.10;99.90;;;;;;5075616;28;20205;-74
2023/04/26 04:22:13;;;;;;;17.40;11.53;;;0.10;99.90;;;;;;5075931;28;20243;-73
2023/04/26 04:24:41;;;;;;;15.17;10.93;;;0.10;99.90;;;;;;5075563;28;20660;-73
2023/04/26 04:27:07;;;;;;;24.17;10.47;;;0.00;99.90;;;;;;5075746;28;20196;-73
2023/04/26 04:29:34;;;;;;;16.67;10.33;;;0.20;99.90;;;;;;5075835;28;20502;-73
2023/04/26 04:32:02;;;;;;;16.33;10.60;;;0.20;99.90;;;;;;5075415;28;20224;-73
2023/04/26 04:34:29;;;;;;;18.07;10.57;;;0.30;99.90;;;;;;5075240;28;20239;-73
2023/04/26 04:36:55;;;;;;;21.43;11.47;;;0.30;99.90;;;;;;5075544;28;20307;-73
2023/04/26 04:39:22;;;;;;;21.53;10.27;;;0.40;99.90;;;;;;5075551;28;20197;-73
2023/04/26 04:41:50;;;;;;;21.93;11.80;;;0.40;99.90;;;;;;5075379;28;20207;-73
2023/04/26 04:44:17;;;;;;;17.57;11.57;;;0.50;99.90;;;;;;5075308;28;20232;-74
2023/04/26 04:46:44;;;;;;;19.53;11.20;;;0.60;99.90;;;;;;5075190;28;20205;-74
2023/04/26 04:49:13;;;;;;;19.37;10.77;;;0.60;99.90;;;;;;5075328;28;20204;-74
2023/04/26 04:51:40;;;;;;;14.77;10.40;;;0.60;99.90;;;;;;5075373;28;20193;-72
2023/04/26 04:54:11;;;;;;;16.37;11.13;;;0.70;99.90;;;;;;5075262;28;20205;-73
2023/04/26 04:56:38;;;;;;;16.40;9.97;;;0.70;99.90;;;;;;5075007;28;20692;-73
2023/04/26 04:59:05;;;;;;;15.60;9.97;;;0.70;99.90;;;;;;5075051;28;20220;-73
2023/04/26 05:01:32;;;;;;;14.90;9.40;;;0.80;99.90;;;;;;5074896;28;20197;-73
2023/04/26 05:03:59;;;;;;;16.20;10.73;;;0.80;99.90;;;;;;5075164;28;20193;-73
2023/04/26 05:06:27;;;;;;;21.30;10.60;;;0.80;99.90;;;;;;5074788;28;20530;-73
2023/04/26 05:08:54;;;;;;;13.70;9.93;;;0.90;99.90;;;;;;5074910;28;20196;-73
2023/04/26 05:11:21;;;;;;;15.40;9.77;;;1.00;99.90;;;;;;5074741;28;20197;-73
2023/04/26 05:13:48;;;;;;;15.10;10.23;;;1.10;99.90;;;;;;5074762;28;20197;-73
2023/04/26 05:16:15;;;;;;;16.53;9.90;;;1.10;99.90;;;;;;5074778;28;20197;-73
2023/04/26 05:18:42;;;;;;;13.27;9.67;;;1.20;99.90;;;;;;5074525;28;20629;-73
2023/04/26 05:21:09;;;;;;;16.53;8.63;;;1.20;99.90;;;;;;5074737;28;20208;-73
2023/04/26 05:23:37;;;;;;;20.17;10.00;;;1.20;99.90;;;;;;5074520;28;20224;-73
2023/04/26 05:26:04;;;;;;;17.90;10.77;;;1.30;99.90;;;;;;5074587;28;20254;-73
2023/04/26 05:28:31;;;;;;;16.80;8.80;;;1.40;99.90;;;;;;5074320;28;20208;-73
2023/04/26 05:30:58;;;;;;;13.13;8.97;;;1.40;99.90;;;;;;5074602;28;20254;-74
2023/04/26 05:33:25;;;;;;;14.73;9.37;;;1.50;99.90;;;;;;5074501;28;20250;-74
2023/04/26 05:35:53;;;;;;;16.93;8.87;;;1.60;99.90;;;;;;5073907;28;20229;-73
2023/04/26 05:38:20;;;;;;;18.30;8.23;;;1.80;99.90;;;;;;5074009;28;20224;-73
2023/04/26 05:40:48;;;;;;;12.33;8.40;;;1.80;99.90;;;;;;5074179;28;20215;-74
2023/04/26 05:43:15;;;;;;;11.00;7.50;;;1.90;99.90;;;;;;5073455;28;20254;-75
2023/04/26 05:45:50;;;;;;;11.03;8.03;;;2.00;99.90;;;;;;5074065;28;20204;-73
2023/04/26 05:48:17;;;;;;;10.40;7.90;;;2.10;99.90;;;;;;5074112;28;20246;-74
2023/04/26 05:50:43;;;;;;;14.07;7.73;;;2.10;99.90;;;;;;5074036;28;20262;-74
2023/04/26 05:53:10;;;;;;;12.53;7.83;;;2.20;99.90;;;;;;5073598;28;20747;-76
2023/04/26 05:55:37;;;;;;;12.27;7.13;;;2.40;99.90;;;;;;5073810;28;20194;-74
2023/04/26 05:58:05;;;;;;;14.63;8.00;;;2.40;99.90;;;;;;5073802;28;20233;-74
2023/04/26 06:00:32;;;;;;;13.43;7.30;;;2.50;99.90;;;;;;5073719;28;20656;-75
2023/04/26 06:02:58;;;;;;;12.07;6.83;;;2.60;99.90;;;;;;5073801;28;20627;-74
2023/04/26 06:05:25;;;;;;;14.27;7.37;;;2.70;99.90;;;;;;5073872;28;20198;-74
2023/04/26 06:07:52;;;;;;;11.20;6.50;;;2.80;99.90;;;;;;5073699;28;20198;-74
2023/04/26 06:10:19;;;;;;;12.90;6.70;;;2.90;99.90;;;;;;5073462;28;20200;-74
2023/04/26 06:12:46;;;;;;;9.03;6.50;;;3.00;99.90;;;;;;5073544;28;20552;-73
2023/04/26 06:15:14;;;;;;;8.00;6.50;;;3.20;99.90;;;;;;5073686;28;20257;-76
2023/04/26 06:17:41;;;;;;;9.50;5.40;;;3.30;99.90;;;;;;5073476;28;20276;-75
2023/04/26 06:20:08;;;;;;;13.97;5.60;;;3.40;99.90;;;;;;5073551;28;20199;-74
2023/04/26 06:22:35;;;;;;;11.30;5.83;;;3.50;99.90;;;;;;5073317;28;20249;-75
2023/04/26 06:25:02;;;;;;;11.77;5.80;;;3.70;99.90;;;;;;5073174;28;20655;-74
2023/04/26 06:27:28;;;;;;;8.33;5.17;;;3.70;99.90;;;;;;5073473;28;20207;-74
2023/04/26 06:29:55;;;;;;;9.07;5.37;;;3.90;99.90;;;;;;5073375;28;20199;-74
2023/04/26 06:32:23;;;;;;;7.20;5.10;;;4.00;99.90;;;;;;5073322;28;20200;-74
2023/04/26 06:34:49;;;;;;;9.03;5.00;;;4.10;99.90;;;;;;5072956;28;20232;-74
2023/04/26 06:37:16;;;;;;;7.80;5.10;;;4.10;99.90;;;;;;5073056;28;20225;-74
2023/04/26 06:39:42;;;;;;;8.03;5.20;;;4.20;99.90;;;;;;5073418;28;20201;-75
2023/04/26 06:42:10;;;;;;;9.83;5.30;;;4.30;99.90;;;;;;5073257;28;20603;-74
2023/04/26 06:44:36;;;;;;;8.33;5.27;;;4.40;99.90;;;;;;5073201;28;20197;-75
2023/04/26 06:47:03;;;;;;;5.13;4.30;;;4.60;99.90;;;;;;5073216;28;20201;-74
2023/04/26 06:49:31;;;;;;;6.93;4.20;;;4.70;99.90;;;;;;5073102;28;20204;-75
2023/04/26 06:51:58;;;;;;;6.77;3.70;;;4.80;99.90;;;;;;5073138;28;20193;-75
2023/04/26 06:54:28;;;;;;;5.60;3.47;;;4.90;99.90;;;;;;5072452;28;20227;-75
2023/04/26 06:56:55;;;;;;;7.77;4.30;;;5.00;99.90;;;;;;5073240;28;20193;-74
2023/04/26 06:59:22;;;;;;;5.67;3.77;;;5.10;99.90;;;;;;5073003;28;20201;-74
2023/04/26 07:01:48;;;;;;;6.80;3.63;;;5.20;99.90;;;;;;5072992;28;20662;-73
2023/04/26 07:04:17;;;;;;;5.50;3.83;;;5.20;99.90;;;;;;5072724;28;20205;-75
2023/04/26 07:06:45;;;;;;;5.23;3.77;;;5.30;99.90;;;;;;5072966;28;20201;-74
2023/04/26 07:09:12;;;;;;;7.17;3.70;;;5.50;99.90;;;;;;5072853;28;20200;-73
2023/04/26 07:11:39;;;;;;;4.57;3.43;;;5.70;99.90;;;;;;5072842;28;20251;-74
2023/04/26 07:14:05;;;;;;;5.80;3.50;;;5.80;99.90;;;;;;5072731;28;20204;-74
2023/04/26 07:16:32;;;;;;;6.30;3.90;;;6.00;99.90;;;;;;5072617;28;20247;-74
2023/04/26 07:18:58;;;;;;;7.13;3.83;;;5.90;99.90;;;;;;5072596;28;20232;-74
2023/04/26 07:21:25;;;;;;;6.13;4.03;;;5.90;99.90;;;;;;5072782;28;20204;-73
2023/04/26 07:23:55;;;;;;;7.67;3.67;;;6.10;99.90;;;;;;5072749;28;20243;-74
2023/04/26 07:26:22;;;;;;;9.43;4.43;;;6.30;99.90;;;;;;5072628;28;20196;-75
2023/04/26 07:28:48;;;;;;;6.87;3.80;;;6.30;99.90;;;;;;5072618;28;20205;-74
2023/04/26 07:31:15;;;;;;;8.83;3.80;;;6.30;99.90;;;;;;5072621;28;20284;-74
2023/04/26 07:33:42;;;;;;;6.77;3.83;;;6.50;99.90;;;;;;5072778;28;20201;-74
2023/04/26 07:36:09;;;;;;;6.87;3.70;;;6.60;99.90;;;;;;5072314;28;20235;-75
2023/04/26 07:38:36;;;;;;;7.47;4.13;;;6.80;99.90;;;;;;5072422;28;20688;-74
2023/04/26 07:41:04;;;;;;;6.00;3.23;;;6.90;99.90;;;;;;5072570;28;20616;-74
2023/04/26 07:43:31;;;;;;;6.73;3.87;;;6.80;99.90;;;;;;5072425;28;20208;-75
2023/04/26 07:46:00;;;;;;;7.33;3.33;;;7.20;99.90;;;;;;5072374;28;20201;-75
2023/04/26 07:48:27;;;;;;;6.00;3.47;;;7.60;99.90;;;;;;5072558;28;20197;-75
2023/04/26 07:50:54;;;;;;;5.90;3.77;;;7.50;99.90;;;;;;5072601;28;20197;-75
2023/04/26 07:53:21;;;;;;;4.30;3.10;;;7.70;99.90;;;;;;5072452;28;20205;-75
2023/04/26 07:55:47;;;;;;;5.07;3.30;;;8.10;99.90;;;;;;5072515;28;20208;-74
2023/04/26 07:58:15;;;;;;;6.43;4.30;;;8.10;99.90;;;;;;5072273;28;20213;-74
2023/04/26 08:00:42;;;;;;;6.57;4.73;;;8.30;99.90;;;;;;5072573;28;20193;-74
2023/04/26 08:03:09;;;;;;;6.93;4.57;;;8.30;99.90;;;;;;5072212;28;20729;-74
2023/04/26 08:05:35;;;;;;;6.20;4.50;;;8.40;99.90;;;;;;5072940;28;20613;-75
2023/04/26 08:08:02;;;;;;;6.83;4.40;;;8.60;99.90;;;;;;5076105;28;20204;-75
2023/04/26 08:10:29;;;;;;;8.23;5.20;;;8.70;99.90;;;;;;5075807;28;20205;-74
2023/04/26 08:12:56;;;;;;;11.37;7.67;;;8.80;99.90;;;;;;5075847;28;20224;-74
2023/04/26 08:15:24;;;;;;;11.00;4.80;;;8.70;99.90;;;;;;5076015;28;20197;-75
2023/04/26 08:17:52;;;;;;;9.37;4.33;;;9.10;99.90;;;;;;5075969;28;20262;-75
2023/04/26 08:20:18;;;;;;;5.87;3.73;;;9.50;99.90;;;;;;5075950;28;20197;-74
2023/04/26 08:22:45;;;;;;;6.87;3.93;;;9.30;99.90;;;;;;5079074;28;20193;-74
2023/04/26 08:25:12;;;;;;;6.50;4.40;;;9.50;99.90;;;;;;5079588;28;20197;-75
2023/04/26 08:27:39;;;;;;;7.30;4.10;;;9.00;99.90;;;;;;5075486;28;20201;-75
2023/04/26 08:30:07;;;;;;;5.23;3.43;;;9.30;99.90;;;;;;5075499;28;20666;-74
2023/04/26 08:32:35;;;;;;;8.20;4.33;;;9.30;99.90;;;;;;5075737;28;20254;-74
2023/04/26 08:35:02;;;;;;;8.90;4.23;;;9.60;99.80;;;;;;5075387;28;20642;-75
2023/04/26 08:37:28;;;;;;;5.73;3.90;;;9.70;98.20;;;;;;5075475;28;20196;-74
2023/04/26 08:39:55;;;;;;;9.73;4.43;;;9.70;97.30;;;;;;5075458;28;20226;-73
2023/04/26 08:42:27;;;;;;;6.20;3.97;;;9.50;97.20;;;;;;5075316;28;20205;-73
2023/04/26 08:44:54;;;;;;;6.37;4.53;;;9.40;98.30;;;;;;5075552;28;20197;-74
2023/04/26 08:47:30;;;;;;;6.40;4.00;;;9.10;98.40;;;;;;5075395;28;20196;-75
2023/04/26 08:50:01;;;;;;;6.40;4.20;;;9.60;98.30;;;;;;5075247;28;20201;-75
2023/04/26 08:52:29;;;;;;;5.03;3.73;;;10.30;95.10;;;;;;5075205;28;20197;-74
2023/04/26 08:54:57;;;;;;;6.40;4.63;;;10.60;90.50;;;;;;5075300;28;20193;-75
2023/04/26 08:57:25;;;;;;;6.40;4.73;;;10.30;87.30;;;;;;5075006;28;20596;-75
2023/04/26 08:59:52;;;;;;;4.93;3.20;;;9.80;81.00;;;;;;5075069;28;20228;-75
2023/04/26 09:02:20;;;;;;;6.20;4.00;;;9.90;83.30;;;;;;5075063;28;20231;-74
2023/04/26 09:04:48;;;;;;;5.93;4.37;;;10.00;81.60;;;;;;5075062;28;20201;-75
2023/04/26 09:07:21;;;;;;;5.93;3.80;;;10.80;81.30;;;;;;5074924;28;20255;-75
2023/04/26 09:09:49;;;;;;;7.63;4.53;;;11.20;80.60;;;;;;5075095;28;20201;-74
2023/04/26 09:12:18;;;;;;;6.67;3.53;;;11.50;77.70;;;;;;5074798;28;20680;-74
2023/04/26 09:14:45;;;;;;;22.67;18.00;;;11.10;79.30;;;;;;5075006;28;20194;-76
2023/04/26 09:17:29;;;;;;;8.10;6.40;;;11.40;77.00;;;;;;5074046;28;20201;-75
2023/04/26 09:19:56;;;;;;;5.33;3.47;;;10.50;72.10;;;;;;5074606;28;20273;-74
2023/04/26 09:22:35;;;;;;;3.77;3.23;;;10.20;72.40;;;;;;5074764;28;20219;-74
2023/04/26 09:25:03;;;;;;;4.60;2.80;;;10.60;72.60;;;;;;5074496;28;20200;-74
2023/04/26 09:27:35;;;;;;;4.53;3.27;;;10.30;71.00;;;;;;5074398;28;20224;-75
2023/04/26 09:30:09;;;;;;;4.07;3.63;;;10.20;72.70;;;;;;5074435;28;20367;-74
2023/04/26 09:32:51;;;;;;;3.80;3.23;;;11.00;72.40;;;;;;5074546;28;20208;-75
2023/04/26 09:35:29;;;;;;;4.37;3.20;;;11.50;66.60;;;;;;5074411;28;20233;-75
2023/04/26 09:38:00;;;;;;;7.70;3.77;;;11.50;62.90;;;;;;5074080;28;20581;-73
2023/04/26 09:40:28;;;;;;;5.10;2.77;;;12.00;62.80;;;;;;5074256;28;20611;-75
2023/04/26 09:42:59;;;;;;;4.57;2.90;;;12.30;60.20;;;;;;5074383;28;20200;-73
2023/04/26 09:45:26;;;;;;;3.63;2.90;;;11.50;58.20;;;;;;5074337;28;20201;-74
2023/04/26 09:47:54;;;;;;;9.53;3.87;;;11.30;56.20;;;;;;5074192;28;20196;-74
2023/04/26 09:50:30;;;;;;;4.83;3.03;;;11.40;57.70;;;;;;5074014;28;20211;-74
2023/04/26 09:52:59;;;;;;;5.63;3.73;;;11.70;58.30;;;;;;5073883;28;20275;-74
2023/04/26 09:55:27;;;;;;;6.83;4.43;;;12.70;58.90;;;;;;5074063;28;20349;-74
2023/04/26 09:57:54;;;;;;;7.00;4.17;;;12.60;56.40;;;;;;5073887;28;20204;-74
2023/04/26 10:00:22;;;;;;;6.37;3.70;;;12.00;56.70;;;;;;5073858;28;20247;-75
2023/04/26 10:02:49;;;;;;;16.27;9.00;;;12.20;57.20;;;;;;5073781;28;20193;-74
2023/04/26 10:05:16;;;;;;;6.37;3.60;;;12.40;57.50;;;;;;5073677;28;20256;-74
2023/04/26 10:07:42;;;;;;;6.97;4.30;;;12.70;57.40;;;;;;5073513;28;20246;-74
2023/04/26 10:10:12;;;;;;;8.40;4.80;;;12.60;54.30;;;;;;5073805;28;20258;-74
2023/04/26 10:12:41;;;;;;;7.30;4.53;;;12.60;53.50;;;;;;5073576;28;20197;-74
2023/04/26 10:15:10;;;;;;;9.07;5.80;;;12.40;51.80;;;;;;5073771;28;20279;-74
2023/04/26 10:17:36;;;;;;;6.27;4.17;;;12.00;52.30;;;;;;5073420;28;20255;-75
2023/04/26 10:20:06;;;;;;;5.73;3.40;;;12.30;52.60;;;;;;5073321;28;20224;-74
2023/04/26 10:22:39;;;;;;;6.07;2.87;;;12.20;50.80;;;;;;5073617;28;20197;-75
2023/04/26 10:25:09;;;;;;;4.80;3.50;;;11.70;50.70;;;;;;5073563;28;20197;-74
2023/04/26 10:27:50;;;;;;;7.77;3.73;;;11.30;50.20;;;;;;5073544;28;20228;-76
2023/04/26 10:30:19;;;;;;;9.95;6.22;;;12.50;53.00;;;;;;5073224;28;20197;-75
2023/04/26 10:33:16;;;;;;;9.40;5.50;;;13.50;53.60;;;;;;5073120;28;20247;-75
2023/04/26 10:36:03;;;;;;;5.28;3.38;;;13.50;51.40;;;;;;5073162;28;20239;-75
2023/04/26 10:38:30;;;;;;;5.82;3.88;;;13.00;51.20;;;;;;5073130;28;20225;-75
2023/04/26 10:41:27;;;;;;;4.57;3.83;;;13.30;52.40;;;;;;5073004;28;20193;-75
2023/04/26 10:43:54;;;;;;;5.55;3.40;;;14.80;49.20;;;;;;5072978;28;20671;-73
2023/04/26 10:46:36;;;;;;;4.93;3.30;;;14.50;47.50;;;;;;5073227;28;20198;-74
2023/04/26 10:49:14;;;;;;;6.15;3.83;;;14.00;47.40;;;;;;5072927;28;20200;-75
2023/04/26 10:51:41;;;;;;;5.60;3.33;;;14.40;47.50;;;;;;5072887;28;20557;-74
2023/04/26 10:54:07;;;;;;;5.45;3.22;;;15.30;45.90;;;;;;5073032;28;20557;-75
2023/04/26 10:57:00;;;;;;;5.88;3.15;;;14.10;42.00;;;;;;5073057;28;20346;-74
2023/04/26 10:59:26;;;;;;;6.22;3.50;;;13.40;42.50;;;;;;5057559;28;20225;-74
2023/04/26 11:01:53;;;;;;;4.90;3.45;;;13.50;44.30;;;;;;5072524;28;20266;-75
2023/04/26 11:04:20;;;;;;;6.78;3.30;;;12.50;44.70;;;;;;5072456;28;20675;-74
2023/04/26 11:06:50;;;;;;;5.87;3.30;;;11.90;46.50;;;;;;5072889;28;20200;-74
2023/04/26 11:09:39;;;;;;;5.70;3.67;;;12.20;47.10;;;;;;5072770;28;20201;-75
2023/04/26 11:12:11;;;;;;;6.23;4.03;;;12.00;47.10;;;;;;5067971;28;20224;-75
2023/04/26 11:14:40;;;;;;;7.90;4.10;;;12.40;47.10;;;;;;5073014;28;20197;-75
2023/04/26 11:17:07;;;;;;;5.07;3.33;;;13.50;46.70;;;;;;5072661;28;20197;-75
2023/04/26 11:19:34;;;;;;;4.75;3.58;;;13.90;44.80;;;;;;5072487;28;20556;-75
2023/04/26 11:22:01;;;;;;;8.95;3.15;;;14.30;43.60;;;;;;5072657;28;20292;-75
2023/04/26 11:24:30;;;;;;;5.40;3.25;;;14.60;43.40;;;;;;5072657;28;20325;-75
2023/04/26 11:26:58;;;;;;;5.60;3.03;;;15.10;41.20;;;;;;5072829;28;20196;-75
2023/04/26 11:29:26;;;;;;;6.78;3.20;;;14.40;40.70;;;;;;5072598;28;20319;-75
2023/04/26 11:31:53;;;;;;;6.57;3.05;;;13.30;40.90;;;;;;5072608;28;20201;-74
2023/04/26 11:34:23;;;;;;;6.32;3.78;;;12.50;41.50;;;;;;5072593;28;20206;-74
2023/04/26 11:36:52;;;;;;;4.20;3.10;;;13.10;43.20;;;;;;5072444;28;20200;-76
2023/04/26 11:39:20;;;;;;;5.53;3.17;;;12.70;43.50;;;;;;5072145;28;20761;-74
2023/04/26 11:41:47;;;;;;;6.60;3.50;;;12.40;43.00;;;;;;5074658;28;20727;-74
2023/04/26 11:44:18;;;;;;;3.80;2.87;;;12.20;43.50;;;;;;5076060;28;20660;-74
2023/04/26 11:46:47;;;;;;;5.13;3.13;;;12.70;43.10;;;;;;5076197;28;20201;-74
2023/04/26 11:49:14;;;;;;;5.10;3.30;;;13.20;42.50;;;;;;5076253;28;20607;-74
2023/04/26 11:51:41;;;;;;;6.80;3.20;;;12.10;42.10;;;;;;5076204;28;20615;-74
2023/04/26 11:54:08;;;;;;;4.23;2.83;;;12.50;42.90;;;;;;5076278;28;20537;-74
2023/04/26 11:56:34;;;;;;;5.57;3.38;;;13.80;42.10;;;;;;5083243;28;20250;-74
2023/04/26 11:59:01;;;;;;;6.43;3.53;;;15.90;41.10;;;;;;5076556;28;20221;-74
2023/04/26 12:01:29;;;;;;;4.55;3.85;;;15.40;38.30;;;;;;5076132;28;20197;-74
2023/04/26 12:03:58;;;;;;;7.05;3.78;;;15.50;39.60;;;;;;5075883;28;20291;-75
2023/04/26 12:06:32;;;;;;;6.35;3.45;;;15.30;39.80;;;;;;5075821;28;20201;-74
2023/04/26 12:09:01;;;;;;;3.30;2.72;;;14.20;40.50;;;;;;5075996;28;20286;-74
2023/04/26 12:11:28;;;;;;;4.43;3.20;;;14.00;40.30;;;;;;5075841;28;20197;-74
2023/04/26 12:13:57;;;;;;;4.72;3.05;;;14.40;40.20;;;;;;5075795;28;20197;-75
2023/04/26 12:16:24;;;;;;;5.22;3.40;;;15.60;41.60;;;;;;5075819;28;20259;-74
2023/04/26 12:18:52;;;;;;;7.55;3.33;;;15.70;39.00;;;;;;5075577;28;20201;-75
2023/04/26 12:21:21;;;;;;;5.80;3.00;;;15.70;36.90;;;;;;5075965;28;20201;-74
2023/04/26 12:23:48;;;;;;;7.85;3.55;;;15.60;36.40;;;;;;5075668;28;20255;-75
2023/04/26 12:26:14;;;;;;;6.32;3.50;;;14.50;36.80;;;;;;5075468;28;20205;-74
2023/04/26 12:28:41;;;;;;;6.18;4.03;;;14.20;37.60;;;;;;5075422;28;20269;-74
2023/04/26 12:31:08;;;;;;;4.25;3.58;;;13.50;39.30;;;;;;5075348;28;20649;-74
2023/04/26 12:33:35;;;;;;;6.85;4.00;;;13.70;39.40;;;;;;5075261;28;20209;-75
2023/04/26 12:36:10;;;;;;;7.43;3.65;;;13.60;40.10;;;;;;5074942;28;20587;-74
2023/04/26 12:38:38;;;;;;;4.60;3.23;;;13.10;40.00;;;;;;5075379;28;20208;-75
2023/04/26 12:41:04;;;;;;;6.83;3.67;;;13.50;41.50;;;;;;5075267;28;20244;-74
2023/04/26 12:43:31;;;;;;;7.10;3.35;;;13.70;39.70;;;;;;5075194;28;20257;-74
2023/04/26 12:45:58;;;;;;;3.85;3.20;;;14.90;39.80;;;;;;5075075;28;20204;-74
2023/04/26 12:48:24;;;;;;;7.65;4.25;;;15.60;38.10;;;;;;5075255;28;20251;-74
2023/04/26 12:50:51;;;;;;;4.20;3.80;;;16.00;38.60;;;;;;5075107;28;20266;-74